Time;durP1;ratioP1;P1;durP2;ratioP2;P2;SDS_P1;SDS_P2;PMS_P1;PMS_P2;Temp;Humidity;BMP_temperature;BMP_pressure;BME280_temperature;BME280_humidity;BME280_pressure;Samples;Min_cycle;Max_cycle;Signal;HPM_P1;HPM_P2
2021/09/11 06:15:34;;;;;;;11.70;10.02;;;;;;;;;;5337820;23;20050;-77
2021/09/11 06:18:00;;;;;;;12.15;10.73;;;;;;;;;;4979948;28;20038;-76
2021/09/11 06:20:25;;;;;;;11.80;10.57;;;;;;;;;;4976573;28;20086;-77
2021/09/11 06:22:51;;;;;;;13.48;11.10;;;;;;;;;;4977533;28;20027;-76
2021/09/11 06:25:16;;;;;;;12.55;10.77;;;;;;;;;;4977504;28;20370;-76
2021/09/11 06:27:42;;;;;;;14.27;11.27;;;;;;;;;;4977553;28;20027;-77
2021/09/11 06:30:09;;;;;;;12.05;10.10;;;;;;;;;;4977360;28;20038;-77
2021/09/11 06:32:34;;;;;;;11.75;10.23;;;;;;;;;;4977250;28;20041;-77
2021/09/11 06:35:00;;;;;;;13.23;9.70;;;;;;;;;;4977163;28;20023;-77
2021/09/11 06:37:25;;;;;;;16.05;10.45;;;;;;;;;;4977352;28;20389;-77
2021/09/11 06:39:51;;;;;;;14.32;10.75;;;;;;;;;;4977508;28;20023;-77
2021/09/11 06:42:19;;;;;;;12.07;10.80;;;;;;;;;;4977428;28;20039;-76
2021/09/11 06:44:45;;;;;;;11.93;10.73;;;;;;;;;;4981524;28;20023;-77
2021/09/11 06:47:10;;;;;;;14.13;11.13;;;;;;;;;;4990675;28;20030;-76
2021/09/11 06:49:36;;;;;;;14.45;11.13;;;;;;;;;;4978748;28;20030;-76
2021/09/11 06:52:01;;;;;;;13.57;11.70;;;;;;;;;;4996532;28;20022;-76
2021/09/11 06:54:27;;;;;;;13.75;12.00;;;;;;;;;;4996611;28;20022;-76
2021/09/11 06:56:52;;;;;;;13.25;10.63;;;;;;;;;;4996490;28;20053;-76
2021/09/11 06:59:17;;;;;;;14.40;11.18;;;;;;;;;;4996440;28;20034;-76
2021/09/11 07:01:43;;;;;;;13.13;11.82;;;;;;;;;;4996220;28;20062;-76
2021/09/11 07:04:08;;;;;;;12.90;11.02;;;;;;;;;;4996487;28;20038;-76
2021/09/11 07:06:34;;;;;;;12.55;11.35;;;;;;;;;;4996147;28;20022;-76
2021/09/11 07:08:59;;;;;;;13.07;10.88;;;;;;;;;;4996061;28;20062;-76
2021/09/11 07:11:24;;;;;;;12.63;10.80;;;;;;;;;;4996045;28;20036;-77
2021/09/11 07:13:50;;;;;;;12.45;10.95;;;;;;;;;;4996247;28;20081;-77
2021/09/11 07:16:15;;;;;;;11.73;10.55;;;;;;;;;;4995719;28;20073;-77
2021/09/11 07:18:41;;;;;;;13.90;11.07;;;;;;;;;;4995895;28;20469;-78
2021/09/11 07:21:06;;;;;;;13.07;10.50;;;;;;;;;;4996066;28;20496;-77
2021/09/11 07:23:32;;;;;;;11.68;10.55;;;;;;;;;;4995920;28;20073;-77
2021/09/11 07:25:58;;;;;;;13.75;10.65;;;;;;;;;;4995951;28;20030;-77
2021/09/11 07:28:23;;;;;;;11.57;10.40;;;;;;;;;;4995635;28;20038;-77
2021/09/11 07:30:49;;;;;;;12.55;10.43;;;;;;;;;;4992103;28;20536;-78
2021/09/11 07:33:14;;;;;;;11.20;10.10;;;;;;;;;;4985997;28;20117;-77
2021/09/11 07:35:40;;;;;;;15.73;10.63;;;;;;;;;;4975656;28;20054;-77
2021/09/11 07:38:06;;;;;;;12.85;10.57;;;;;;;;;;4976120;28;20023;-77
2021/09/11 07:40:31;;;;;;;10.65;9.55;;;;;;;;;;4976290;28;20027;-77
2021/09/11 07:42:57;;;;;;;11.60;9.45;;;;;;;;;;4976260;28;20018;-77
2021/09/11 07:45:22;;;;;;;12.07;10.73;;;;;;;;;;4958752;28;20104;-77
2021/09/11 07:47:47;;;;;;;11.05;9.98;;;;;;;;;;4975780;28;20035;-77
2021/09/11 07:50:13;;;;;;;12.63;10.27;;;;;;;;;;4975952;28;20035;-77
2021/09/11 07:52:39;;;;;;;10.52;9.52;;;;;;;;;;4975771;28;20023;-78
2021/09/11 07:55:08;;;;;;;10.73;9.50;;;;;;;;;;4975643;28;20034;-77
2021/09/11 07:57:33;;;;;;;10.45;9.18;;;;;;;;;;4975742;28;20031;-77
2021/09/11 07:59:59;;;;;;;11.18;9.80;;;;;;;;;;4975586;28;20540;-78
2021/09/11 08:02:24;;;;;;;9.90;8.90;;;;;;;;;;4976266;28;20516;-78
2021/09/11 08:04:50;;;;;;;12.70;10.10;;;;;;;;;;4975481;28;20093;-75
2021/09/11 08:07:15;;;;;;;10.90;9.80;;;;;;;;;;4975808;28;20042;-75
2021/09/11 08:09:40;;;;;;;11.00;9.77;;;;;;;;;;4975493;28;20027;-75
2021/09/11 08:12:06;;;;;;;10.95;9.93;;;;;;;;;;4975677;28;20027;-75
2021/09/11 08:14:32;;;;;;;10.88;9.82;;;;;;;;;;4975229;28;20130;-78
2021/09/11 08:16:57;;;;;;;9.80;8.80;;;;;;;;;;4975600;28;20041;-77
2021/09/11 08:19:23;;;;;;;11.98;9.38;;;;;;;;;;4975458;28;20106;-77
2021/09/11 08:21:48;;;;;;;12.65;9.50;;;;;;;;;;4975419;28;20034;-77
2021/09/11 08:24:14;;;;;;;10.57;9.55;;;;;;;;;;4975425;28;20026;-77
2021/09/11 08:26:39;;;;;;;10.27;9.15;;;;;;;;;;4975233;28;20023;-77
2021/09/11 08:29:05;;;;;;;12.55;10.05;;;;;;;;;;4975119;28;20027;-77
2021/09/11 08:31:30;;;;;;;11.05;9.95;;;;;;;;;;4975133;28;20027;-77
2021/09/11 08:33:56;;;;;;;13.48;10.63;;;;;;;;;;4975200;28;20116;-77
2021/09/11 08:36:24;;;;;;;10.95;9.85;;;;;;;;;;4975474;28;20036;-77
2021/09/11 08:38:50;;;;;;;11.43;10.38;;;;;;;;;;4957940;28;20054;-78
2021/09/11 08:41:16;;;;;;;11.13;10.02;;;;;;;;;;4974871;28;20105;-77
2021/09/11 08:43:41;;;;;;;11.18;9.88;;;;;;;;;;4974570;28;20465;-77
2021/09/11 08:46:07;;;;;;;10.23;9.23;;;;;;;;;;4975279;28;20023;-77
2021/09/11 08:48:32;;;;;;;10.63;9.63;;;;;;;;;;4974971;28;20114;-77
2021/09/11 08:50:58;;;;;;;10.40;9.40;;;;;;;;;;4974802;28;20023;-77
2021/09/11 08:53:23;;;;;;;10.45;9.30;;;;;;;;;;4957544;28;20074;-77
2021/09/11 08:55:49;;;;;;;9.82;8.90;;;;;;;;;;4974801;28;20027;-77
2021/09/11 08:58:18;;;;;;;12.77;8.85;;;;;;;;;;4974852;28;20031;-77
2021/09/11 09:01:02;;;;;;;;;;;;;;;;;;4975166;28;20037;-77
2021/09/11 09:03:39;;;;;;;9.73;8.82;;;;;;;;;;4975093;28;19918;-77
2021/09/11 09:06:27;;;;;;;9.55;8.65;;;;;;;;;;4974802;28;20027;-77
2021/09/11 09:08:57;;;;;;;10.45;9.32;;;;;;;;;;4974494;28;20049;-77
2021/09/11 09:11:28;;;;;;;10.18;9.18;;;;;;;;;;4975013;28;20035;-77
2021/09/11 09:14:08;;;;;;;9.52;8.52;;;;;;;;;;4974775;28;20073;-77
2021/09/11 09:16:36;;;;;;;11.02;9.27;;;;;;;;;;4974605;28;20046;-77
2021/09/11 09:19:19;;;;;;;10.45;9.45;;;;;;;;;;4974706;28;20381;-77
2021/09/11 09:21:47;;;;;;;12.45;9.40;;;;;;;;;;4974729;28;20035;-77
2021/09/11 09:24:26;;;;;;;9.98;8.98;;;;;;;;;;4975707;28;20035;-76
2021/09/11 09:27:04;;;;;;;13.68;10.15;;;;;;;;;;4993999;28;20385;-76
2021/09/11 09:29:34;;;;;;;10.10;9.07;;;;;;;;;;4993900;28;20429;-76
2021/09/11 09:32:00;;;;;;;10.75;9.65;;;;;;;;;;4993772;28;20038;-76
2021/09/11 09:34:34;;;;;;;12.30;10.40;;;;;;;;;;4993828;28;20026;-76
2021/09/11 09:37:02;;;;;;;11.18;9.95;;;;;;;;;;4993891;28;20444;-77
2021/09/11 09:39:28;;;;;;;11.60;10.40;;;;;;;;;;4993843;28;20026;-77
2021/09/11 09:42:01;;;;;;;11.10;9.85;;;;;;;;;;4993823;28;20023;-77
2021/09/11 09:44:26;;;;;;;11.02;9.82;;;;;;;;;;4993696;28;20019;-78
2021/09/11 09:46:52;;;;;;;11.40;9.48;;;;;;;;;;4993976;28;20026;-78
2021/09/11 09:49:21;;;;;;;10.20;8.95;;;;;;;;;;4993600;28;20026;-77
2021/09/11 09:51:47;;;;;;;;;;;;;;;;;;4976804;28;20475;-77
2021/09/11 09:54:14;;;;;;;10.88;9.75;;;;;;;;;;4996397;28;20265;-77
2021/09/11 09:56:40;;;;;;;9.82;8.88;;;;;;;;;;4997424;28;20037;-77
2021/09/11 09:59:06;;;;;;;10.30;9.30;;;;;;;;;;4997276;28;20030;-77
2021/09/11 10:01:32;;;;;;;10.20;8.68;;;;;;;;;;4997262;28;20034;-77
2021/09/11 10:03:57;;;;;;;11.70;8.95;;;;;;;;;;4979679;28;20030;-77
2021/09/11 10:06:29;;;;;;;11.90;10.00;;;;;;;;;;4997430;28;20054;-77
2021/09/11 10:09:06;;;;;;;9.70;8.70;;;;;;;;;;4997285;28;20030;-77
2021/09/11 10:11:37;;;;;;;12.30;8.80;;;;;;;;;;4996848;28;20554;-77
2021/09/11 10:14:09;;;;;;;9.70;8.80;;;;;;;;;;4997319;28;20053;-77
2021/09/11 10:16:37;;;;;;;10.32;9.32;;;;;;;;;;4997189;28;20076;-77
2021/09/11 10:19:18;;;;;;;9.85;8.10;;;;;;;;;;4985750;28;20110;-77
2021/09/11 10:21:45;;;;;;;13.63;10.70;;;;;;;;;;4977391;28;20385;-78
2021/09/11 10:24:23;;;;;;;11.70;8.93;;;;;;;;;;4977664;28;20073;-78
2021/09/11 10:26:58;;;;;;;11.02;9.57;;;;;;;;;;4977521;28;20410;-78
2021/09/11 10:29:33;;;;;;;14.30;9.45;;;;;;;;;;4977199;28;20081;-78
2021/09/11 10:32:38;;;;;;;10.98;9.77;;;;;;;;;;4977516;28;20055;-79
2021/09/11 10:35:09;;;;;;;12.27;9.80;;;;;;;;;;4963238;28;20045;-78
2021/09/11 10:37:46;;;;;;;12.65;10.57;;;;;;;;;;4977226;28;20110;-80
2021/09/11 10:40:28;;;;;;;11.95;10.40;;;;;;;;;;4977112;28;20031;-78
2021/09/11 10:43:20;;;;;;;12.13;10.80;;;;;;;;;;4977303;28;20106;-79
2021/09/11 10:45:52;;;;;;;12.45;11.25;;;;;;;;;;4977031;28;20027;-79
2021/09/11 10:48:36;;;;;;;14.00;11.77;;;;;;;;;;4976871;28;20033;-78
2021/09/11 10:51:23;;;;;;;14.13;11.10;;;;;;;;;;4977089;28;20027;-78
2021/09/11 10:54:08;;;;;;;13.75;11.57;;;;;;;;;;4977064;28;20466;-84
2021/09/11 10:56:39;;;;;;;14.63;11.50;;;;;;;;;;4976794;28;20162;-79
2021/09/11 10:59:23;;;;;;;12.63;11.18;;;;;;;;;;4976863;28;20027;-79
2021/09/11 11:01:54;;;;;;;14.95;12.30;;;;;;;;;;4977228;28;20041;-78
2021/09/11 11:04:29;;;;;;;12.50;11.25;;;;;;;;;;4976328;28;20054;-79
2021/09/11 11:06:56;;;;;;;12.38;11.18;;;;;;;;;;4976801;28;20023;-78
2021/09/11 11:09:22;;;;;;;13.50;12.07;;;;;;;;;;4976517;28;20037;-82
2021/09/11 11:11:50;;;;;;;15.05;12.35;;;;;;;;;;4976771;28;20066;-80
2021/09/11 11:14:16;;;;;;;12.68;11.48;;;;;;;;;;4976281;28;20031;-82
2021/09/11 11:16:51;;;;;;;13.48;11.57;;;;;;;;;;4982754;28;20027;-80
2021/09/11 11:19:28;;;;;;;13.98;11.45;;;;;;;;;;4993090;28;20033;-78
2021/09/11 11:21:59;;;;;;;14.05;11.73;;;;;;;;;;4995988;28;20026;-79
2021/09/11 11:24:35;;;;;;;13.40;12.02;;;;;;;;;;4995586;28;20548;-80
2021/09/11 11:27:09;;;;;;;14.20;11.52;;;;;;;;;;4995804;28;20030;-82
2021/09/11 11:29:35;;;;;;;14.60;12.15;;;;;;;;;;4995654;28;20030;-80
2021/09/11 11:32:03;;;;;;;19.00;12.20;;;;;;;;;;4969772;28;20119;-78
2021/09/11 11:34:29;;;;;;;13.98;11.90;;;;;;;;;;4990818;28;20037;-79
2021/09/11 11:36:57;;;;;;;14.43;13.02;;;;;;;;;;4967155;28;20027;-78
2021/09/11 11:39:26;;;;;;;15.00;13.50;;;;;;;;;;4995607;28;20038;-78
2021/09/11 11:41:56;;;;;;;16.67;13.80;;;;;;;;;;4995516;28;20027;-78
2021/09/11 11:44:23;;;;;;;15.63;13.98;;;;;;;;;;4995423;28;20030;-78
2021/09/11 11:46:53;;;;;;;13.13;11.10;;;;;;;;;;4995435;28;20036;-78
2021/09/11 11:49:20;;;;;;;12.15;10.88;;;;;;;;;;4995026;28;20030;-78
2021/09/11 11:51:54;;;;;;;14.32;12.13;;;;;;;;;;4995147;28;20477;-78
2021/09/11 11:54:21;;;;;;;14.13;12.73;;;;;;;;;;4995299;28;20090;-78
2021/09/11 11:56:50;;;;;;;13.88;11.38;;;;;;;;;;4995337;28;20023;-78
2021/09/11 11:59:24;;;;;;;15.23;13.63;;;;;;;;;;4995109;28;20028;-78
2021/09/11 12:01:51;;;;;;;15.65;13.95;;;;;;;;;;4995161;28;20153;-78
2021/09/11 12:04:17;;;;;;;17.95;14.50;;;;;;;;;;4995515;28;20077;-78
2021/09/11 12:06:55;;;;;;;16.70;12.88;;;;;;;;;;4995234;28;20377;-78
2021/09/11 12:09:20;;;;;;;11.85;10.65;;;;;;;;;;4994721;28;20050;-78
2021/09/11 12:11:46;;;;;;;13.88;11.73;;;;;;;;;;4994978;28;20069;-78
2021/09/11 12:14:14;;;;;;;15.45;12.88;;;;;;;;;;4994859;28;20038;-78
2021/09/11 12:16:43;;;;;;;12.80;11.25;;;;;;;;;;4993722;28;20432;-78
2021/09/11 12:19:18;;;;;;;13.23;11.90;;;;;;;;;;4977269;28;20034;-78
2021/09/11 12:21:45;;;;;;;13.20;11.90;;;;;;;;;;4994893;28;20027;-78
2021/09/11 12:24:25;;;;;;;12.15;10.93;;;;;;;;;;4994751;28;20377;-78
2021/09/11 12:26:51;;;;;;;17.13;12.50;;;;;;;;;;4994678;28;20381;-78
2021/09/11 12:29:17;;;;;;;22.50;17.27;;;;;;;;;;4994601;28;20080;-78
2021/09/11 12:31:56;;;;;;;12.23;10.93;;;;;;;;;;4994707;28;20102;-78
2021/09/11 12:34:22;;;;;;;14.43;10.90;;;;;;;;;;4994585;28;20026;-78
2021/09/11 12:36:49;;;;;;;10.85;9.77;;;;;;;;;;4994544;28;20105;-78
2021/09/11 12:39:15;;;;;;;14.43;12.93;;;;;;;;;;4994641;28;20022;-78
2021/09/11 12:41:45;;;;;;;15.70;14.20;;;;;;;;;;4994959;28;20137;-78
2021/09/11 12:44:12;;;;;;;16.88;14.25;;;;;;;;;;4994344;28;20089;-78
2021/09/11 12:46:44;;;;;;;16.33;13.77;;;;;;;;;;4994548;28;20061;-78
2021/09/11 12:49:10;;;;;;;16.60;13.90;;;;;;;;;;4994392;28;20117;-78
2021/09/11 12:51:38;;;;;;;12.88;11.23;;;;;;;;;;4994285;28;20109;-78
2021/09/11 12:54:04;;;;;;;16.40;12.77;;;;;;;;;;4994201;28;20045;-78
2021/09/11 12:56:30;;;;;;;18.00;13.90;;;;;;;;;;4994497;28;20053;-78
2021/09/11 12:58:57;;;;;;;14.45;11.57;;;;;;;;;;4994422;28;20034;-78
2021/09/11 13:01:24;;;;;;;11.30;10.20;;;;;;;;;;4994408;28;20105;-78
2021/09/11 13:03:50;;;;;;;10.80;9.60;;;;;;;;;;4994112;28;20029;-78
2021/09/11 13:06:16;;;;;;;12.38;11.07;;;;;;;;;;4994267;28;20366;-78
2021/09/11 13:08:43;;;;;;;11.75;9.68;;;;;;;;;;4994142;28;20034;-78
2021/09/11 13:11:09;;;;;;;10.65;9.65;;;;;;;;;;4994327;28;20041;-78
2021/09/11 13:13:35;;;;;;;10.88;9.50;;;;;;;;;;4976682;28;20034;-78
2021/09/11 13:16:01;;;;;;;14.45;12.35;;;;;;;;;;4994234;28;20053;-78
2021/09/11 13:18:26;;;;;;;10.98;9.75;;;;;;;;;;4994233;28;20034;-78
2021/09/11 13:20:52;;;;;;;11.88;10.05;;;;;;;;;;4994119;28;20140;-78
2021/09/11 13:23:18;;;;;;;13.45;11.32;;;;;;;;;;4994118;28;20540;-78
2021/09/11 13:25:43;;;;;;;12.73;11.10;;;;;;;;;;4994159;28;20030;-78
2021/09/11 13:28:09;;;;;;;18.05;11.95;;;;;;;;;;4995055;28;20465;-78
2021/09/11 13:30:35;;;;;;;14.85;12.77;;;;;;;;;;4980274;28;20038;-78
2021/09/11 13:33:00;;;;;;;13.35;11.40;;;;;;;;;;4998059;28;20026;-78
2021/09/11 13:35:26;;;;;;;11.73;10.63;;;;;;;;;;4997752;28;20109;-78
2021/09/11 13:37:51;;;;;;;12.05;10.30;;;;;;;;;;4997946;28;20457;-78
2021/09/11 13:40:17;;;;;;;14.13;11.40;;;;;;;;;;4997624;28;20030;-78
2021/09/11 13:42:42;;;;;;;13.27;11.85;;;;;;;;;;4997869;28;20038;-78
2021/09/11 13:45:08;;;;;;;14.68;13.10;;;;;;;;;;4997685;28;20018;-78
2021/09/11 13:47:34;;;;;;;14.45;13.05;;;;;;;;;;4997595;28;20422;-78
2021/09/11 13:49:59;;;;;;;15.70;13.73;;;;;;;;;;4997586;28;20491;-78
2021/09/11 13:52:26;;;;;;;12.55;11.18;;;;;;;;;;4997541;28;20030;-78
2021/09/11 13:54:51;;;;;;;11.85;10.63;;;;;;;;;;4997695;28;20022;-78
2021/09/11 13:57:17;;;;;;;12.88;11.13;;;;;;;;;;4997498;28;20022;-77
2021/09/11 13:59:42;;;;;;;12.07;10.80;;;;;;;;;;4997371;28;20109;-78
2021/09/11 14:02:08;;;;;;;13.85;11.70;;;;;;;;;;4975307;28;20121;-80
2021/09/11 14:04:33;;;;;;;11.50;10.18;;;;;;;;;;4985386;28;20022;-78
2021/09/11 14:07:01;;;;;;;11.68;10.55;;;;;;;;;;4977797;28;20453;-78
2021/09/11 14:09:26;;;;;;;12.45;10.57;;;;;;;;;;4977716;28;20086;-78
2021/09/11 14:11:52;;;;;;;12.68;11.38;;;;;;;;;;4977616;28;20031;-78
2021/09/11 14:14:18;;;;;;;13.13;10.93;;;;;;;;;;4977585;28;20027;-78
2021/09/11 14:16:43;;;;;;;12.45;11.15;;;;;;;;;;4977668;28;20058;-82
2021/09/11 14:19:09;;;;;;;12.00;10.90;;;;;;;;;;4977518;28;20050;-78
2021/09/11 14:21:34;;;;;;;13.90;11.32;;;;;;;;;;4977439;28;20035;-79
2021/09/11 14:24:00;;;;;;;12.90;11.45;;;;;;;;;;4977309;28;20057;-79
2021/09/11 14:26:25;;;;;;;12.13;10.20;;;;;;;;;;4977664;28;20098;-78
2021/09/11 14:28:50;;;;;;;11.70;10.60;;;;;;;;;;4977293;28;20066;-78
2021/09/11 14:31:16;;;;;;;11.10;10.02;;;;;;;;;;4980642;28;20034;-78
2021/09/11 14:33:42;;;;;;;11.10;10.10;;;;;;;;;;4996739;28;20080;-78
2021/09/11 14:36:08;;;;;;;13.35;11.20;;;;;;;;;;4996694;28;20390;-78
2021/09/11 14:38:34;;;;;;;17.55;11.43;;;;;;;;;;4996781;28;20536;-78
2021/09/11 14:40:59;;;;;;;12.30;10.10;;;;;;;;;;4995771;28;20109;-78
2021/09/11 14:43:25;;;;;;;11.68;10.48;;;;;;;;;;4996481;28;20160;-78
2021/09/11 14:45:50;;;;;;;11.70;10.60;;;;;;;;;;4996728;28;20026;-78
2021/09/11 14:48:16;;;;;;;11.48;10.27;;;;;;;;;;4996489;28;20018;-79
2021/09/11 14:50:41;;;;;;;11.55;10.13;;;;;;;;;;4996389;28;20093;-80
2021/09/11 14:53:07;;;;;;;11.50;10.27;;;;;;;;;;4996466;28;20030;-80
2021/09/11 14:55:32;;;;;;;12.52;11.05;;;;;;;;;;4996729;28;20050;-81
2021/09/11 14:57:58;;;;;;;11.80;10.45;;;;;;;;;;4996394;28;20030;-80
2021/09/11 15:00:24;;;;;;;13.25;10.40;;;;;;;;;;4996278;28;20030;-79
2021/09/11 15:02:49;;;;;;;11.25;10.15;;;;;;;;;;4996481;28;20022;-83
2021/09/11 15:05:15;;;;;;;11.32;10.13;;;;;;;;;;4996138;28;20026;-81
2021/09/11 15:07:40;;;;;;;12.70;11.02;;;;;;;;;;4978848;28;20125;-78
2021/09/11 15:10:07;;;;;;;15.00;12.30;;;;;;;;;;4995821;28;20066;-78
2021/09/11 15:12:32;;;;;;;15.35;12.02;;;;;;;;;;4996263;28;20065;-79
2021/09/11 15:14:59;;;;;;;12.93;11.40;;;;;;;;;;4995816;28;20077;-79
2021/09/11 15:17:28;;;;;;;15.50;12.00;;;;;;;;;;4996164;28;20034;-78
2021/09/11 17:09:54;;;;;;;10.45;9.35;;;;;;;;;;5113620;23;20485;-78
2021/09/11 17:12:20;;;;;;;11.77;10.32;;;;;;;;;;4993848;28;20113;-79
2021/09/11 17:14:45;;;;;;;11.50;10.27;;;;;;;;;;4993902;28;20022;-79
2021/09/11 17:17:11;;;;;;;11.30;9.50;;;;;;;;;;4993462;28;20044;-79
2021/09/11 17:19:36;;;;;;;10.20;8.45;;;;;;;;;;4993773;28;20109;-78
2021/09/11 17:22:04;;;;;;;10.18;9.10;;;;;;;;;;4994067;28;20023;-82
2021/09/11 17:24:29;;;;;;;9.18;8.23;;;;;;;;;;4993843;28;20046;-80
2021/09/11 17:26:55;;;;;;;9.90;8.90;;;;;;;;;;4993835;28;20018;-78
2021/09/11 17:29:20;;;;;;;9.90;8.77;;;;;;;;;;4993747;28;20022;-78
2021/09/11 17:31:46;;;;;;;9.98;8.93;;;;;;;;;;4993896;28;20030;-77
2021/09/11 17:34:11;;;;;;;8.90;8.02;;;;;;;;;;4993710;28;20026;-77
2021/09/11 17:36:37;;;;;;;9.23;7.75;;;;;;;;;;4993642;28;20396;-77
2021/09/11 17:39:03;;;;;;;10.82;8.13;;;;;;;;;;4993821;28;20461;-80
2021/09/11 17:41:28;;;;;;;8.30;7.53;;;;;;;;;;4993994;28;20038;-84
2021/09/11 17:43:54;;;;;;;9.30;7.68;;;;;;;;;;4983598;28;20037;-84
2021/09/11 17:46:19;;;;;;;10.57;9.57;;;;;;;;;;4993530;28;20022;-83
2021/09/11 17:48:45;;;;;;;8.93;8.10;;;;;;;;;;4993576;28;20089;-83
2021/09/11 17:51:10;;;;;;;8.02;7.22;;;;;;;;;;4993727;28;20033;-83
2021/09/11 17:53:36;;;;;;;8.80;7.90;;;;;;;;;;4992443;28;20393;-83
2021/09/11 17:56:01;;;;;;;11.27;7.88;;;;;;;;;;4993571;28;20130;-86
2021/09/11 17:58:27;;;;;;;9.50;8.70;;;;;;;;;;4993437;28;20018;-83
2021/09/11 18:00:52;;;;;;;9.77;8.65;;;;;;;;;;4993681;28;20027;-81
2021/09/11 18:03:20;;;;;;;12.25;10.73;;;;;;;;;;4994202;28;20069;-81
2021/09/11 18:05:45;;;;;;;9.90;8.25;;;;;;;;;;4993409;28;20034;-79
2021/09/11 18:08:11;;;;;;;8.65;7.57;;;;;;;;;;4993413;28;20022;-81
2021/09/11 18:10:40;;;;;;;7.82;7.13;;;;;;;;;;4999622;28;20097;-81
2021/09/11 18:13:06;;;;;;;8.30;7.50;;;;;;;;;;5012982;28;20124;-82
2021/09/11 18:15:34;;;;;;;8.38;7.28;;;;;;;;;;5015826;28;20520;-80
2021/09/11 18:17:59;;;;;;;8.27;7.25;;;;;;;;;;5016354;28;20109;-80
2021/09/11 18:20:28;;;;;;;8.88;8.05;;;;;;;;;;4998655;28;20468;-82
2021/09/11 18:22:56;;;;;;;10.45;7.68;;;;;;;;;;4996773;28;20038;-82
2021/09/11 18:25:22;;;;;;;8.20;6.95;;;;;;;;;;4996759;28;20026;-82
2021/09/11 18:27:49;;;;;;;8.00;7.20;;;;;;;;;;4996755;28;20089;-82
2021/09/11 18:30:14;;;;;;;10.23;8.05;;;;;;;;;;4979218;28;20026;-82
2021/09/11 18:32:40;;;;;;;8.48;7.57;;;;;;;;;;4996492;28;20022;-81
2021/09/11 18:35:07;;;;;;;9.82;7.38;;;;;;;;;;4996602;28;20022;-81
2021/09/11 18:37:32;;;;;;;7.82;7.13;;;;;;;;;;5014830;28;20030;-82
2021/09/11 18:39:58;;;;;;;8.25;7.45;;;;;;;;;;5016237;28;20030;-80
2021/09/11 18:42:23;;;;;;;8.55;6.72;;;;;;;;;;5016244;28;20148;-81
2021/09/11 18:44:48;;;;;;;7.47;6.78;;;;;;;;;;5016136;28;20034;-80
2021/09/11 18:47:15;;;;;;;7.82;6.70;;;;;;;;;;5015805;28;20029;-81
2021/09/11 18:49:41;;;;;;;9.32;7.32;;;;;;;;;;5016033;28;20421;-81
2021/09/11 18:52:07;;;;;;;7.50;6.70;;;;;;;;;;5016125;28;20064;-81
2021/09/11 18:54:33;;;;;;;8.10;7.00;;;;;;;;;;5016299;28;20033;-81
2021/09/11 18:56:59;;;;;;;7.88;7.07;;;;;;;;;;5014094;28;20389;-81
2021/09/11 18:59:24;;;;;;;7.18;6.47;;;;;;;;;;5015864;28;20034;-81
2021/09/11 19:01:50;;;;;;;8.13;7.07;;;;;;;;;;5016034;28;20038;-81
2021/09/11 19:04:17;;;;;;;7.97;7.18;;;;;;;;;;5015944;28;20034;-81
2021/09/11 19:06:43;;;;;;;8.02;7.18;;;;;;;;;;5015654;28;20110;-81
2021/09/11 19:09:08;;;;;;;9.82;7.35;;;;;;;;;;4998247;28;20038;-81
2021/09/11 19:11:34;;;;;;;7.47;6.78;;;;;;;;;;5015619;28;20045;-84
2021/09/11 19:14:00;;;;;;;7.93;7.07;;;;;;;;;;5015595;28;20033;-81
2021/09/11 19:16:26;;;;;;;8.98;7.40;;;;;;;;;;5015501;28;20022;-81
2021/09/11 19:18:51;;;;;;;11.60;8.32;;;;;;;;;;5015797;28;20544;-81
2021/09/11 19:21:17;;;;;;;7.13;6.50;;;;;;;;;;5015846;28;20021;-82
2021/09/11 19:23:42;;;;;;;7.72;6.93;;;;;;;;;;5015549;28;20116;-81
2021/09/11 19:26:08;;;;;;;7.45;6.63;;;;;;;;;;5014766;28;20464;-81
2021/09/11 19:28:34;;;;;;;7.75;6.95;;;;;;;;;;5015314;28;20056;-81
2021/09/11 19:30:59;;;;;;;8.00;7.30;;;;;;;;;;5015437;28;20037;-81
2021/09/11 19:33:25;;;;;;;7.35;6.55;;;;;;;;;;5015271;28;20480;-82
2021/09/11 19:35:51;;;;;;;7.10;6.40;;;;;;;;;;5015267;28;20337;-81
2021/09/11 19:38:17;;;;;;;7.82;7.03;;;;;;;;;;5015226;28;20026;-81
2021/09/11 19:40:43;;;;;;;8.75;6.68;;;;;;;;;;5015198;28;20514;-81
2021/09/11 19:43:08;;;;;;;7.47;6.78;;;;;;;;;;4997445;28;20362;-81
2021/09/11 19:45:34;;;;;;;8.50;7.70;;;;;;;;;;5015181;28;20025;-83
2021/09/11 19:48:01;;;;;;;8.57;7.18;;;;;;;;;;4997593;28;20026;-81
2021/09/11 19:50:28;;;;;;;8.07;7.28;;;;;;;;;;5015042;28;20036;-81
2021/09/11 19:52:54;;;;;;;7.53;6.82;;;;;;;;;;5014804;28;20026;-81
2021/09/11 19:55:20;;;;;;;8.10;7.18;;;;;;;;;;5014841;28;20495;-81
2021/09/11 19:57:46;;;;;;;7.63;6.82;;;;;;;;;;4997422;28;20037;-81
2021/09/11 20:00:12;;;;;;;7.95;7.25;;;;;;;;;;4997249;28;20021;-81
2021/09/11 20:02:38;;;;;;;8.10;6.72;;;;;;;;;;5014683;28;20037;-81
2021/09/11 20:05:05;;;;;;;7.22;6.63;;;;;;;;;;5014657;28;20026;-81
2021/09/11 20:07:31;;;;;;;8.60;6.82;;;;;;;;;;5014783;28;20362;-81
2021/09/11 20:09:56;;;;;;;7.55;6.85;;;;;;;;;;5014382;28;20033;-81
2021/09/11 20:12:21;;;;;;;7.75;6.95;;;;;;;;;;5014766;28;20030;-81
2021/09/11 20:14:47;;;;;;;7.35;6.60;;;;;;;;;;5014408;28;20413;-81
2021/09/11 20:17:12;;;;;;;7.30;6.70;;;;;;;;;;5014551;28;20030;-82
2021/09/11 20:19:38;;;;;;;7.60;6.90;;;;;;;;;;5014560;28;20037;-82
2021/09/11 20:22:04;;;;;;;8.77;6.50;;;;;;;;;;5014551;28;20372;-82
2021/09/11 20:24:30;;;;;;;7.68;6.95;;;;;;;;;;5014473;28;20055;-81
2021/09/11 20:26:56;;;;;;;8.60;7.65;;;;;;;;;;5014340;28;20560;-82
2021/09/11 20:29:21;;;;;;;7.60;6.85;;;;;;;;;;5014378;28;20100;-81
2021/09/11 20:31:47;;;;;;;7.78;6.85;;;;;;;;;;5014382;28;20032;-82
2021/09/11 20:34:12;;;;;;;8.05;7.35;;;;;;;;;;5014392;28;20030;-82
2021/09/11 20:36:38;;;;;;;7.80;7.00;;;;;;;;;;5014140;28;20476;-82
2021/09/11 20:39:04;;;;;;;8.10;7.30;;;;;;;;;;5013237;28;20083;-83
2021/09/11 20:41:29;;;;;;;9.02;6.88;;;;;;;;;;4996482;28;20468;-82
2021/09/11 20:43:55;;;;;;;7.13;6.50;;;;;;;;;;5013928;28;20053;-83
2021/09/11 20:46:21;;;;;;;7.70;6.53;;;;;;;;;;5014375;28;20021;-83
2021/09/11 20:48:47;;;;;;;7.60;6.90;;;;;;;;;;5014250;28;20108;-81
2021/09/11 20:51:13;;;;;;;8.45;6.90;;;;;;;;;;5014216;28;20552;-81
2021/09/11 20:53:38;;;;;;;9.65;7.10;;;;;;;;;;5013970;28;20476;-84
2021/09/11 20:56:10;;;;;;;9.57;8.40;;;;;;;;;;5013780;28;20026;-85
2021/09/11 20:58:35;;;;;;;8.63;7.75;;;;;;;;;;5014002;28;20033;-85
2021/09/11 21:01:01;;;;;;;8.50;7.50;;;;;;;;;;5014010;28;20022;-85
2021/09/11 21:03:26;;;;;;;9.07;7.30;;;;;;;;;;5013856;28;20025;-84
2021/09/11 21:05:54;;;;;;;10.02;7.72;;;;;;;;;;5013934;28;20105;-83
2021/09/11 21:08:19;;;;;;;8.00;6.97;;;;;;;;;;5014086;28;20079;-84
2021/09/11 21:10:45;;;;;;;8.30;7.50;;;;;;;;;;5013617;28;20582;-85
2021/09/11 21:13:10;;;;;;;8.15;7.35;;;;;;;;;;5013666;28;20153;-83
2021/09/11 21:15:36;;;;;;;8.45;7.63;;;;;;;;;;5014837;28;20026;-84
2021/09/11 21:18:03;;;;;;;11.18;7.95;;;;;;;;;;4996080;28;20088;-82
2021/09/11 21:20:29;;;;;;;8.88;8.00;;;;;;;;;;5013930;28;20026;-83
2021/09/11 21:22:54;;;;;;;8.52;7.60;;;;;;;;;;5013677;28;20026;-82
2021/09/11 21:25:20;;;;;;;8.23;7.43;;;;;;;;;;5013683;28;20212;-86
2021/09/11 21:27:45;;;;;;;7.65;6.95;;;;;;;;;;5013701;28;20377;-85
2021/09/11 21:30:12;;;;;;;8.70;7.80;;;;;;;;;;5013729;28;20057;-84
2021/09/11 21:32:38;;;;;;;8.73;7.05;;;;;;;;;;5013515;28;20026;-81
2021/09/11 21:35:04;;;;;;;8.43;7.38;;;;;;;;;;4995913;28;20028;-81
2021/09/11 21:37:32;;;;;;;8.77;7.85;;;;;;;;;;5013402;28;20026;-81
2021/09/11 21:39:58;;;;;;;8.80;7.20;;;;;;;;;;5013675;28;20034;-81
2021/09/11 21:42:24;;;;;;;8.10;7.30;;;;;;;;;;5013499;28;20037;-82
2021/09/11 21:44:49;;;;;;;8.63;7.63;;;;;;;;;;5013478;28;20033;-85
2021/09/11 21:47:14;;;;;;;8.70;7.90;;;;;;;;;;5013372;28;20026;-81
2021/09/11 21:49:40;;;;;;;8.18;7.38;;;;;;;;;;5015196;28;20056;-81
2021/09/11 21:52:08;;;;;;;7.93;7.22;;;;;;;;;;5017354;28;20503;-81
2021/09/11 21:54:34;;;;;;;9.88;8.60;;;;;;;;;;5017200;28;20025;-81
2021/09/11 21:57:00;;;;;;;8.68;7.38;;;;;;;;;;5017149;28;20049;-81
2021/09/11 21:59:25;;;;;;;8.65;7.30;;;;;;;;;;5017211;28;20026;-80
2021/09/11 22:01:54;;;;;;;8.63;7.47;;;;;;;;;;5017038;28;20366;-80
2021/09/11 22:04:20;;;;;;;8.23;7.40;;;;;;;;;;5016964;28;20048;-81
2021/09/11 22:06:46;;;;;;;8.20;7.40;;;;;;;;;;5016973;28;20026;-81
2021/09/11 22:09:11;;;;;;;7.82;7.13;;;;;;;;;;5016935;28;20028;-81
2021/09/11 22:11:37;;;;;;;7.82;7.03;;;;;;;;;;4995720;28;20073;-81
2021/09/11 22:14:02;;;;;;;8.38;7.57;;;;;;;;;;4997353;28;20038;-81
2021/09/11 22:16:28;;;;;;;8.73;7.82;;;;;;;;;;4997239;28;20101;-82
2021/09/11 22:18:53;;;;;;;7.90;6.80;;;;;;;;;;4997299;28;20056;-81
2021/09/11 22:21:19;;;;;;;9.70;8.70;;;;;;;;;;4997388;28;20105;-81
2021/09/11 22:23:45;;;;;;;10.45;9.00;;;;;;;;;;4997307;28;20358;-81
2021/09/11 22:26:10;;;;;;;9.45;7.45;;;;;;;;;;4996742;28;20029;-81
2021/09/11 22:28:39;;;;;;;9.95;7.68;;;;;;;;;;4997230;28;20544;-81
2021/09/11 22:31:04;;;;;;;9.70;8.32;;;;;;;;;;4997122;28;20030;-81
2021/09/11 22:33:30;;;;;;;8.20;7.40;;;;;;;;;;4995623;28;20370;-80